createdAt,value
2023-05-14T00:00:20.332Z,11.10
2023-05-14T00:04:24.840Z,11.10
2023-05-14T00:08:28.277Z,11.10
2023-05-14T00:12:33.405Z,11.20
2023-05-14T00:16:36.740Z,11.20
2023-05-14T00:20:44.969Z,11.30
2023-05-14T00:24:52.297Z,11.40
2023-05-14T00:28:55.973Z,11.50
2023-05-14T00:33:02.216Z,11.50
2023-05-14T00:37:09.335Z,11.60
2023-05-14T00:41:12.386Z,11.60
2023-05-14T00:45:15.471Z,11.70
2023-05-14T00:49:21.800Z,11.70
2023-05-14T00:53:26.374Z,11.70
2023-05-14T00:57:29.414Z,11.70
2023-05-14T01:01:39.450Z,11.80
2023-05-14T01:05:54.970Z,11.80
2023-05-14T01:10:07.385Z,11.80
2023-05-14T01:14:24.506Z,11.80
2023-05-14T01:18:30.907Z,11.80
2023-05-14T01:22:35.318Z,11.80
2023-05-14T01:26:41.142Z,11.80
2023-05-14T01:30:49.367Z,11.80
2023-05-14T01:34:57.914Z,11.80
2023-05-14T01:39:09.695Z,11.80
2023-05-14T01:43:12.934Z,11.80
2023-05-14T01:47:18.890Z,11.80
2023-05-14T01:51:23.183Z,11.70
2023-05-14T01:55:32.192Z,11.70
2023-05-14T01:59:36.769Z,11.70
2023-05-14T02:03:40.937Z,11.60
2023-05-14T02:07:47.113Z,11.50
2023-05-14T02:11:54.087Z,11.50
2023-05-14T02:15:57.126Z,11.40
2023-05-14T02:20:03.868Z,11.40
2023-05-14T02:24:09.326Z,11.30
2023-05-14T02:28:13.824Z,11.30
2023-05-14T02:32:18.287Z,11.30
2023-05-14T02:36:24.341Z,11.30
2023-05-14T02:40:34.663Z,11.20
2023-05-14T02:44:39.157Z,11.20
2023-05-14T02:48:45.292Z,11.20
2023-05-14T02:52:48.432Z,11.10
2023-05-14T02:56:53.176Z,11.10
2023-05-14T03:05:17.628Z,10.90
2023-05-14T03:09:20.916Z,10.80
2023-05-14T03:13:28.677Z,10.80
2023-05-14T03:17:32.338Z,10.70
2023-05-14T03:21:36.884Z,10.60
2023-05-14T03:25:45.178Z,10.50
2023-05-14T03:29:48.424Z,10.40
2023-05-14T03:33:52.083Z,10.30
2023-05-14T03:37:59.360Z,10.20
2023-05-14T03:42:02.649Z,10.20
2023-05-14T03:46:05.874Z,10.10
2023-05-14T03:50:12.793Z,10.10
2023-05-14T03:54:17.465Z,10.10
2023-05-14T03:58:20.478Z,10.10
2023-05-14T04:02:28.340Z,10.10
2023-05-14T04:06:31.671Z,10.10
2023-05-14T04:10:36.251Z,10.10
2023-05-14T04:14:43.558Z,10.10
2023-05-14T04:18:48.567Z,10.10
2023-05-14T04:22:51.894Z,10.10
2023-05-14T04:26:58.785Z,10.20
2023-05-14T04:31:02.027Z,10.20
2023-05-14T04:35:06.017Z,10.30
2023-05-14T04:39:10.069Z,10.40
2023-05-14T04:43:15.970Z,10.50
2023-05-14T04:47:22.298Z,10.60
2023-05-14T04:51:31.731Z,10.70
2023-05-14T04:55:34.759Z,10.80
2023-05-14T04:59:40.999Z,11.00
2023-05-14T05:03:44.033Z,11.10
2023-05-14T05:07:47.283Z,11.30
2023-05-14T05:11:51.491Z,11.50
2023-05-14T05:15:57.236Z,11.70
2023-05-14T05:20:04.889Z,11.90
2023-05-14T05:24:09.594Z,12.00
2023-05-14T05:28:17.282Z,12.10
2023-05-14T05:32:24.738Z,12.20
2023-05-14T05:36:28.804Z,12.40
2023-05-14T05:40:41.436Z,12.60
2023-05-14T05:44:44.449Z,12.70
2023-05-14T05:48:53.633Z,12.90
2023-05-14T05:52:56.900Z,13.20
2023-05-14T05:57:05.326Z,13.40
2023-05-14T06:01:08.638Z,13.50
2023-05-14T06:05:13.385Z,13.70
2023-05-14T06:09:18.725Z,13.70
2023-05-14T06:13:21.735Z,13.90
2023-05-14T06:17:27.204Z,13.90
2023-05-14T06:21:31.630Z,13.80
2023-05-14T06:25:36.089Z,13.80
2023-05-14T06:29:40.476Z,13.90
2023-05-14T06:33:43.690Z,14.20
2023-05-14T06:37:48.149Z,14.20
2023-05-14T06:41:54.094Z,14.30
2023-05-14T06:45:57.496Z,14.70
2023-05-14T06:50:02.012Z,15.10
2023-05-14T06:54:08.250Z,15.30
2023-05-14T06:58:11.285Z,15.40
2023-05-14T07:02:14.261Z,15.40
2023-05-14T07:06:19.475Z,15.60
2023-05-14T07:10:26.432Z,15.80
2023-05-14T07:14:29.817Z,15.90
2023-05-14T07:18:32.906Z,16.00
2023-05-14T07:22:37.081Z,16.10
2023-05-14T07:26:42.149Z,16.20
2023-05-14T07:30:46.368Z,16.40
2023-05-14T07:39:02.259Z,17.40
2023-05-14T07:43:09.611Z,17.60
2023-05-14T07:47:12.653Z,17.50
2023-05-14T07:51:16.840Z,18.00
2023-05-14T07:55:20.076Z,18.60
2023-05-14T07:59:26.826Z,18.80
2023-05-14T08:03:34.361Z,19.30
2023-05-14T08:07:37.757Z,19.50
2023-05-14T08:11:42.498Z,19.40
2023-05-14T08:15:48.607Z,19.40
2023-05-14T08:19:59.047Z,19.60
2023-05-14T08:24:02.086Z,19.50
2023-05-14T08:28:05.521Z,19.80
2023-05-14T08:32:22.585Z,20.10
2023-05-14T08:36:26.948Z,19.80
2023-05-14T08:40:31.347Z,20.90
2023-05-14T08:44:40.942Z,20.30
2023-05-14T08:48:52.594Z,19.80
2023-05-14T08:52:55.699Z,19.80
2023-05-14T08:56:59.138Z,19.70
2023-05-14T09:01:04.788Z,19.70
2023-05-14T09:05:12.534Z,20.90
2023-05-14T09:09:18.618Z,20.60
2023-05-14T09:13:21.701Z,20.60
2023-05-14T09:17:27.502Z,21.00
2023-05-14T09:21:33.519Z,21.60
2023-05-14T09:25:36.944Z,21.70
2023-05-14T09:29:39.942Z,21.60
2023-05-14T09:33:43.253Z,22.80
2023-05-14T09:37:49.522Z,22.80
2023-05-14T09:41:53.288Z,21.70
2023-05-14T09:45:58.703Z,21.70
2023-05-14T09:50:03.804Z,21.60
2023-05-14T09:54:09.894Z,21.70
2023-05-14T09:58:14.420Z,22.00
2023-05-14T10:02:24.734Z,22.30
2023-05-14T10:06:31.958Z,22.40
2023-05-14T10:10:38.734Z,22.20
2023-05-14T10:14:46.114Z,22.30
2023-05-14T10:18:57.166Z,24.10
2023-05-14T10:23:03.618Z,24.20
2023-05-14T10:27:09.633Z,23.10
2023-05-14T10:31:13.910Z,23.10
2023-05-14T10:35:20.386Z,23.40
2023-05-14T10:39:25.203Z,22.90
2023-05-14T10:43:33.216Z,24.20
2023-05-14T10:47:38.154Z,25.20
2023-05-14T10:51:42.174Z,24.90
2023-05-14T10:55:46.143Z,24.30
2023-05-14T10:59:53.430Z,24.10
2023-05-14T11:04:07.603Z,24.30
2023-05-14T11:08:14.374Z,23.90
2023-05-14T11:12:18.221Z,24.60
2023-05-14T11:16:24.942Z,23.70
2023-05-14T11:20:29.360Z,23.00
2023-05-14T11:24:34.181Z,23.00
2023-05-14T11:28:41.367Z,22.40
2023-05-14T11:32:52.055Z,22.00
2023-05-14T11:36:55.115Z,22.10
2023-05-14T11:41:04.997Z,23.20
2023-05-14T11:45:14.759Z,24.30
2023-05-14T11:49:26.017Z,23.60
2023-05-14T11:53:34.728Z,23.60
2023-05-14T11:57:39.322Z,24.70
2023-05-14T12:01:50.652Z,25.50
2023-05-14T12:05:59.057Z,26.40
2023-05-14T12:10:05.884Z,27.40
2023-05-14T12:14:17.579Z,27.20
2023-05-14T12:18:28.001Z,26.90
2023-05-14T12:22:32.458Z,26.00
2023-05-14T12:26:38.620Z,25.50
2023-05-14T12:30:42.171Z,24.30
2023-05-14T12:34:47.450Z,23.70
2023-05-14T12:39:02.338Z,23.50
2023-05-14T12:43:09.576Z,23.20
2023-05-14T12:47:12.631Z,23.10
2023-05-14T12:51:15.904Z,22.90
2023-05-14T12:55:20.408Z,22.70
2023-05-14T12:59:23.434Z,22.60
2023-05-14T13:03:29.489Z,22.40
2023-05-14T13:07:38.958Z,22.10
2023-05-14T13:11:49.166Z,21.80
2023-05-14T13:15:55.640Z,21.60
2023-05-14T13:19:58.983Z,21.50
2023-05-14T13:24:03.561Z,21.40
2023-05-14T13:28:10.063Z,21.30
2023-05-14T13:32:13.100Z,21.10
2023-05-14T13:36:18.214Z,21.00
2023-05-14T13:40:22.656Z,21.20
2023-05-14T13:44:27.069Z,21.20
2023-05-14T13:48:34.560Z,21.00
2023-05-14T13:52:40.276Z,20.80
2023-05-14T13:56:43.601Z,20.70
2023-05-14T14:00:48.010Z,20.70
2023-05-14T14:04:54.441Z,20.50
2023-05-14T14:08:57.426Z,20.40
2023-05-14T14:13:01.770Z,20.50
2023-05-14T14:17:09.141Z,20.90
2023-05-14T14:21:18.030Z,20.80
2023-05-14T14:25:21.730Z,20.80
2023-05-14T14:29:27.700Z,21.00
2023-05-14T14:33:34.476Z,20.50
2023-05-14T14:37:37.811Z,19.90
2023-05-14T14:41:44.558Z,19.40
2023-05-14T14:45:49.225Z,19.10
2023-05-14T14:49:56.763Z,18.80
2023-05-14T14:53:59.783Z,18.20
2023-05-14T14:58:03.072Z,17.40
2023-05-14T15:02:06.525Z,16.70
2023-05-14T15:06:11.294Z,16.40
2023-05-14T15:10:14.426Z,16.40
2023-05-14T15:14:23.090Z,16.50
2023-05-14T15:18:30.068Z,16.50
2023-05-14T15:22:35.841Z,16.40
2023-05-14T15:26:40.752Z,16.10
2023-05-14T15:30:43.758Z,15.80
2023-05-14T15:34:46.707Z,15.50
2023-05-14T15:38:54.934Z,15.30
2023-05-14T15:43:03.278Z,15.00
2023-05-14T15:47:07.261Z,14.80
2023-05-14T15:51:11.842Z,14.70
2023-05-14T15:55:20.723Z,14.70
2023-05-14T15:59:24.663Z,14.90
2023-05-14T16:03:31.918Z,15.00
2023-05-14T16:07:37.450Z,15.10
2023-05-14T16:11:41.888Z,15.00
2023-05-14T16:15:45.082Z,15.10
2023-05-14T16:19:53.457Z,15.10
2023-05-14T16:24:01.562Z,15.10
2023-05-14T16:28:14.235Z,15.10
2023-05-14T16:32:17.411Z,14.90
2023-05-14T16:36:20.590Z,14.80
2023-05-14T16:40:24.147Z,15.00
2023-05-14T16:44:30.574Z,15.90
2023-05-14T16:48:33.660Z,17.00
2023-05-14T16:52:38.284Z,17.90
2023-05-14T16:56:48.322Z,18.60
2023-05-14T17:00:54.026Z,19.30
2023-05-14T17:05:00.299Z,19.50
2023-05-14T17:09:07.152Z,19.00
2023-05-14T17:13:10.292Z,18.50
2023-05-14T17:17:14.680Z,17.90
2023-05-14T17:21:17.816Z,17.40
2023-05-14T17:25:23.781Z,16.90
2023-05-14T17:29:29.326Z,16.60
2023-05-14T17:33:33.795Z,16.30
2023-05-14T17:37:44.841Z,15.90
2023-05-14T17:41:47.836Z,15.90
2023-05-14T17:45:54.440Z,16.20
2023-05-14T17:49:59.908Z,16.60
2023-05-14T17:54:02.870Z,16.70
2023-05-14T17:58:08.556Z,16.20
2023-05-14T18:02:14.791Z,15.70
2023-05-14T18:06:19.335Z,15.20
2023-05-14T18:10:22.413Z,14.80
2023-05-14T18:14:25.497Z,14.50
2023-05-14T18:18:34.177Z,14.30
2023-05-14T18:22:38.596Z,14.10
2023-05-14T18:26:42.086Z,13.90
2023-05-14T18:30:47.274Z,13.70
2023-05-14T18:34:51.916Z,13.50
2023-05-14T18:38:56.334Z,13.30
2023-05-14T18:42:59.845Z,13.10
2023-05-14T18:47:08.256Z,12.90
2023-05-14T18:51:12.444Z,12.80
2023-05-14T18:55:18.617Z,12.60
2023-05-14T18:59:21.687Z,12.50
2023-05-14T19:03:28.362Z,12.40
2023-05-14T19:07:35.180Z,12.30
2023-05-14T19:11:39.588Z,12.20
2023-05-14T19:15:42.730Z,12.00
2023-05-14T19:19:46.288Z,11.90
2023-05-14T19:23:49.325Z,11.70
2023-05-14T19:27:55.302Z,11.60
2023-05-14T19:31:58.640Z,11.50
2023-05-14T19:36:04.482Z,11.30
2023-05-14T19:40:09.059Z,11.20
2023-05-14T19:44:13.661Z,11.10
2023-05-14T19:48:21.296Z,11.00
2023-05-14T19:52:25.332Z,10.90
2023-05-14T19:56:31.629Z,10.80
2023-05-14T20:00:41.795Z,10.60
2023-05-14T20:04:46.214Z,10.60
2023-05-14T20:08:49.556Z,10.60
2023-05-14T20:12:55.144Z,10.70
2023-05-14T20:17:02.659Z,10.80
2023-05-14T20:21:07.482Z,10.80
2023-05-14T20:25:16.549Z,10.90
2023-05-14T20:29:19.549Z,11.00
2023-05-14T20:33:24.103Z,11.10
2023-05-14T20:37:27.717Z,11.20
2023-05-14T20:41:31.373Z,11.30
2023-05-14T20:45:34.473Z,11.40
2023-05-14T20:49:40.900Z,11.40
2023-05-14T20:53:43.887Z,11.50
2023-05-14T20:57:50.743Z,11.60
2023-05-14T21:01:53.923Z,11.60
2023-05-14T21:05:58.423Z,11.60
2023-05-14T21:10:01.900Z,11.50
2023-05-14T21:14:04.919Z,11.40
2023-05-14T21:18:08.070Z,11.40
2023-05-14T21:22:14.520Z,11.30
2023-05-14T21:26:22.296Z,11.30
2023-05-14T21:30:25.538Z,11.40
2023-05-14T21:34:29.808Z,11.40
2023-05-14T21:38:40.991Z,11.40
2023-05-14T21:42:44.416Z,11.40
2023-05-14T21:46:48.182Z,11.40
2023-05-14T21:50:51.180Z,11.40
2023-05-14T21:54:57.416Z,11.40
2023-05-14T21:59:00.694Z,11.40
2023-05-14T22:03:06.144Z,11.30
2023-05-14T22:07:13.429Z,11.30
2023-05-14T22:11:19.870Z,11.20
2023-05-14T22:15:23.093Z,11.30
2023-05-14T22:19:26.897Z,11.30
2023-05-14T22:23:29.915Z,11.30
2023-05-14T22:27:37.361Z,11.20
2023-05-14T22:31:40.518Z,11.20
2023-05-14T22:35:44.051Z,11.10
2023-05-14T22:39:47.057Z,11.00
2023-05-14T22:43:52.608Z,10.90
2023-05-14T22:47:55.681Z,10.80
2023-05-14T22:52:07.992Z,10.70
2023-05-14T22:56:13.558Z,10.60
2023-05-14T23:00:18.813Z,10.60
2023-05-14T23:04:26.887Z,10.50
2023-05-14T23:08:29.921Z,10.40
2023-05-14T23:12:35.426Z,10.40
2023-05-14T23:16:44.839Z,10.40
2023-05-14T23:20:52.127Z,10.40
2023-05-14T23:24:55.669Z,10.40
2023-05-14T23:28:58.639Z,10.50
2023-05-14T23:33:03.335Z,10.50
2023-05-14T23:37:06.699Z,10.50
2023-05-14T23:41:10.154Z,10.50
2023-05-14T23:45:16.325Z,10.50
2023-05-14T23:49:23.775Z,10.50
2023-05-14T23:53:26.849Z,10.60
2023-05-14T23:57:29.882Z,10.60
